sensor_id;sensor_type;location;lat;lon;timestamp;temperature;humidity
12025;DHT22;6073;53.230;10.444;2023-11-21T00:02:13;8.90;99.90
12025;DHT22;6073;53.230;10.444;2023-11-21T00:04:39;8.90;99.90
12025;DHT22;6073;53.230;10.444;2023-11-21T00:07:04;8.90;99.90
12025;DHT22;6073;53.230;10.444;2023-11-21T00:09:31;8.90;99.90
12025;DHT22;6073;53.230;10.444;2023-11-21T00:11:57;8.90;99.90
12025;DHT22;6073;53.230;10.444;2023-11-21T00:14:24;8.90;99.90
12025;DHT22;6073;53.230;10.444;2023-11-21T00:16:50;8.90;99.90
12025;DHT22;6073;53.230;10.444;2023-11-21T00:19:15;8.90;99.90
12025;DHT22;6073;53.230;10.444;2023-11-21T00:21:42;8.90;99.90
12025;DHT22;6073;53.230;10.444;2023-11-21T00:24:10;8.90;99.90
12025;DHT22;6073;53.230;10.444;2023-11-21T00:26:35;8.80;99.90
12025;DHT22;6073;53.230;10.444;2023-11-21T00:29:03;8.70;99.90
12025;DHT22;6073;53.230;10.444;2023-11-21T00:31:29;8.70;99.90
12025;DHT22;6073;53.230;10.444;2023-11-21T00:33:56;8.70;99.90
12025;DHT22;6073;53.230;10.444;2023-11-21T00:36:21;8.60;99.90
12025;DHT22;6073;53.230;10.444;2023-11-21T00:38:47;8.50;99.90
12025;DHT22;6073;53.230;10.444;2023-11-21T00:41:13;8.50;99.90
12025;DHT22;6073;53.230;10.444;2023-11-21T00:43:39;8.50;99.90
12025;DHT22;6073;53.230;10.444;2023-11-21T00:46:05;8.50;99.90
12025;DHT22;6073;53.230;10.444;2023-11-21T00:48:33;8.50;99.90
12025;DHT22;6073;53.230;10.444;2023-11-21T00:50:58;8.40;99.90
12025;DHT22;6073;53.230;10.444;2023-11-21T00:53:24;8.40;99.90
12025;DHT22;6073;53.230;10.444;2023-11-21T00:55:50;8.40;99.90
12025;DHT22;6073;53.230;10.444;2023-11-21T00:58:17;8.40;99.90
12025;DHT22;6073;53.230;10.444;2023-11-21T01:00:43;8.30;99.90
12025;DHT22;6073;53.230;10.444;2023-11-21T01:03:09;8.30;99.90
12025;DHT22;6073;53.230;10.444;2023-11-21T01:05:34;8.20;99.90
12025;DHT22;6073;53.230;10.444;2023-11-21T01:08:00;8.20;99.90
12025;DHT22;6073;53.230;10.444;2023-11-21T01:10:25;8.20;99.90
12025;DHT22;6073;53.230;10.444;2023-11-21T01:12:51;8.10;99.90
12025;DHT22;6073;53.230;10.444;2023-11-21T01:15:16;8.10;99.90
12025;DHT22;6073;53.230;10.444;2023-11-21T01:17:42;8.00;99.90
12025;DHT22;6073;53.230;10.444;2023-11-21T01:20:08;8.00;99.90
12025;DHT22;6073;53.230;10.444;2023-11-21T01:22:38;8.00;99.90
12025;DHT22;6073;53.230;10.444;2023-11-21T01:25:04;8.00;99.90
12025;DHT22;6073;53.230;10.444;2023-11-21T01:27:33;7.90;99.90
12025;DHT22;6073;53.230;10.444;2023-11-21T01:29:59;7.90;99.90
12025;DHT22;6073;53.230;10.444;2023-11-21T01:32:25;7.80;99.90
12025;DHT22;6073;53.230;10.444;2023-11-21T01:34:51;7.70;99.90
12025;DHT22;6073;53.230;10.444;2023-11-21T01:37:16;7.70;99.90
12025;DHT22;6073;53.230;10.444;2023-11-21T01:39:43;7.70;99.90
12025;DHT22;6073;53.230;10.444;2023-11-21T01:42:10;7.60;99.90
12025;DHT22;6073;53.230;10.444;2023-11-21T01:44:36;7.60;99.90
12025;DHT22;6073;53.230;10.444;2023-11-21T01:47:02;7.60;99.90
12025;DHT22;6073;53.230;10.444;2023-11-21T01:49:32;7.60;99.90
12025;DHT22;6073;53.230;10.444;2023-11-21T01:51:59;7.60;99.90
12025;DHT22;6073;53.230;10.444;2023-11-21T01:54:25;7.50;99.90
12025;DHT22;6073;53.230;10.444;2023-11-21T01:56:51;7.50;99.90
12025;DHT22;6073;53.230;10.444;2023-11-21T01:59:20;7.40;99.90
12025;DHT22;6073;53.230;10.444;2023-11-21T02:01:49;7.40;99.90
12025;DHT22;6073;53.230;10.444;2023-11-21T02:04:19;7.40;99.90
12025;DHT22;6073;53.230;10.444;2023-11-21T02:06:46;7.30;99.90
12025;DHT22;6073;53.230;10.444;2023-11-21T02:09:12;7.30;99.90
12025;DHT22;6073;53.230;10.444;2023-11-21T02:11:40;7.40;99.90
12025;DHT22;6073;53.230;10.444;2023-11-21T02:14:06;7.30;99.90
12025;DHT22;6073;53.230;10.444;2023-11-21T02:16:34;7.20;99.90
12025;DHT22;6073;53.230;10.444;2023-11-21T02:19:01;7.20;99.90
12025;DHT22;6073;53.230;10.444;2023-11-21T02:21:27;7.20;99.90
12025;DHT22;6073;53.230;10.444;2023-11-21T02:23:53;7.20;99.90
12025;DHT22;6073;53.230;10.444;2023-11-21T02:26:18;7.10;99.90
12025;DHT22;6073;53.230;10.444;2023-11-21T02:28:45;7.10;99.90
12025;DHT22;6073;53.230;10.444;2023-11-21T02:31:11;7.00;99.90
12025;DHT22;6073;53.230;10.444;2023-11-21T02:33:37;7.00;99.90
12025;DHT22;6073;53.230;10.444;2023-11-21T02:36:04;7.00;99.90
12025;DHT22;6073;53.230;10.444;2023-11-21T02:38:29;6.90;99.90
12025;DHT22;6073;53.230;10.444;2023-11-21T02:40:57;6.90;99.90
12025;DHT22;6073;53.230;10.444;2023-11-21T02:43:26;6.80;99.90
12025;DHT22;6073;53.230;10.444;2023-11-21T02:45:51;6.80;99.90
12025;DHT22;6073;53.230;10.444;2023-11-21T02:48:17;6.80;99.90
12025;DHT22;6073;53.230;10.444;2023-11-21T02:50:42;6.80;99.90
12025;DHT22;6073;53.230;10.444;2023-11-21T02:53:09;6.80;99.90
12025;DHT22;6073;53.230;10.444;2023-11-21T02:55:36;6.80;99.90
12025;DHT22;6073;53.230;10.444;2023-11-21T02:58:02;6.70;99.90
12025;DHT22;6073;53.230;10.444;2023-11-21T03:00:29;6.70;99.90
12025;DHT22;6073;53.230;10.444;2023-11-21T03:02:56;6.70;99.90
12025;DHT22;6073;53.230;10.444;2023-11-21T03:05:21;6.70;99.90
12025;DHT22;6073;53.230;10.444;2023-11-21T03:07:47;6.70;99.90
12025;DHT22;6073;53.230;10.444;2023-11-21T03:10:12;6.70;99.90
12025;DHT22;6073;53.230;10.444;2023-11-21T03:12:39;6.70;99.90
12025;DHT22;6073;53.230;10.444;2023-11-21T03:15:06;6.60;99.90
12025;DHT22;6073;53.230;10.444;2023-11-21T03:17:31;6.60;99.90
12025;DHT22;6073;53.230;10.444;2023-11-21T03:19:59;6.60;99.90
12025;DHT22;6073;53.230;10.444;2023-11-21T03:22:25;6.60;99.90
12025;DHT22;6073;53.230;10.444;2023-11-21T03:24:50;6.60;99.90
12025;DHT22;6073;53.230;10.444;2023-11-21T03:27:16;6.60;99.90
12025;DHT22;6073;53.230;10.444;2023-11-21T03:29:41;6.60;99.90
12025;DHT22;6073;53.230;10.444;2023-11-21T03:32:07;6.60;99.90
12025;DHT22;6073;53.230;10.444;2023-11-21T03:34:32;6.60;99.90
12025;DHT22;6073;53.230;10.444;2023-11-21T03:36:58;6.60;99.90
12025;DHT22;6073;53.230;10.444;2023-11-21T03:39:24;6.60;99.90
12025;DHT22;6073;53.230;10.444;2023-11-21T03:41:51;6.60;99.90
12025;DHT22;6073;53.230;10.444;2023-11-21T03:44:17;6.60;99.90
12025;DHT22;6073;53.230;10.444;2023-11-21T03:46:43;6.50;99.90
12025;DHT22;6073;53.230;10.444;2023-11-21T03:49:09;6.50;99.90
12025;DHT22;6073;53.230;10.444;2023-11-21T03:51:36;6.50;99.90
12025;DHT22;6073;53.230;10.444;2023-11-21T03:54:02;6.50;99.90
12025;DHT22;6073;53.230;10.444;2023-11-21T03:56:28;6.50;99.90
12025;DHT22;6073;53.230;10.444;2023-11-21T03:58:53;6.40;99.90
12025;DHT22;6073;53.230;10.444;2023-11-21T04:01:21;6.40;99.90
12025;DHT22;6073;53.230;10.444;2023-11-21T04:03:47;6.50;99.90
12025;DHT22;6073;53.230;10.444;2023-11-21T04:06:13;6.50;99.90
12025;DHT22;6073;53.230;10.444;2023-11-21T04:08:38;6.40;99.90
12025;DHT22;6073;53.230;10.444;2023-11-21T04:13:35;6.40;99.90
12025;DHT22;6073;53.230;10.444;2023-11-21T04:16:00;6.40;99.90
12025;DHT22;6073;53.230;10.444;2023-11-21T04:18:28;6.30;99.90
12025;DHT22;6073;53.230;10.444;2023-11-21T04:20:54;6.30;99.90
12025;DHT22;6073;53.230;10.444;2023-11-21T04:23:22;6.30;99.90
12025;DHT22;6073;53.230;10.444;2023-11-21T04:25:48;6.40;99.90
12025;DHT22;6073;53.230;10.444;2023-11-21T04:28:13;6.30;99.90
12025;DHT22;6073;53.230;10.444;2023-11-21T04:30:39;6.30;99.90
12025;DHT22;6073;53.230;10.444;2023-11-21T04:33:05;6.30;99.90
12025;DHT22;6073;53.230;10.444;2023-11-21T04:35:30;6.20;99.90
12025;DHT22;6073;53.230;10.444;2023-11-21T04:37:56;6.20;99.90
12025;DHT22;6073;53.230;10.444;2023-11-21T04:40:22;6.30;99.90
12025;DHT22;6073;53.230;10.444;2023-11-21T04:42:48;6.30;99.90
12025;DHT22;6073;53.230;10.444;2023-11-21T04:45:13;6.30;99.90
12025;DHT22;6073;53.230;10.444;2023-11-21T04:47:39;6.30;99.90
12025;DHT22;6073;53.230;10.444;2023-11-21T04:50:05;6.30;99.90
12025;DHT22;6073;53.230;10.444;2023-11-21T04:52:31;6.30;99.90
12025;DHT22;6073;53.230;10.444;2023-11-21T04:54:58;6.30;99.90
12025;DHT22;6073;53.230;10.444;2023-11-21T04:57:24;6.30;99.90
12025;DHT22;6073;53.230;10.444;2023-11-21T04:59:49;6.30;99.90
12025;DHT22;6073;53.230;10.444;2023-11-21T05:02:16;6.30;99.90
12025;DHT22;6073;53.230;10.444;2023-11-21T05:04:41;6.30;99.90
12025;DHT22;6073;53.230;10.444;2023-11-21T05:07:08;6.20;99.90
12025;DHT22;6073;53.230;10.444;2023-11-21T05:09:33;6.30;99.90
12025;DHT22;6073;53.230;10.444;2023-11-21T05:11:59;6.30;99.90
12025;DHT22;6073;53.230;10.444;2023-11-21T05:14:25;6.30;99.90
12025;DHT22;6073;53.230;10.444;2023-11-21T05:16:51;6.30;99.90
12025;DHT22;6073;53.230;10.444;2023-11-21T05:19:17;6.30;99.90
12025;DHT22;6073;53.230;10.444;2023-11-21T05:21:43;6.20;99.90
12025;DHT22;6073;53.230;10.444;2023-11-21T05:24:08;6.20;99.90
12025;DHT22;6073;53.230;10.444;2023-11-21T05:26:35;6.20;99.90
12025;DHT22;6073;53.230;10.444;2023-11-21T05:29:00;6.20;99.90
12025;DHT22;6073;53.230;10.444;2023-11-21T05:31:26;6.20;99.90
12025;DHT22;6073;53.230;10.444;2023-11-21T05:33:52;6.10;99.90
12025;DHT22;6073;53.230;10.444;2023-11-21T05:36:18;6.10;99.90
12025;DHT22;6073;53.230;10.444;2023-11-21T05:38:44;6.10;99.90
12025;DHT22;6073;53.230;10.444;2023-11-21T05:41:09;6.00;99.90
12025;DHT22;6073;53.230;10.444;2023-11-21T05:43:39;6.00;99.90
12025;DHT22;6073;53.230;10.444;2023-11-21T05:46:05;6.00;99.90
12025;DHT22;6073;53.230;10.444;2023-11-21T05:48:32;6.00;99.90
12025;DHT22;6073;53.230;10.444;2023-11-21T05:50:57;6.00;99.90
12025;DHT22;6073;53.230;10.444;2023-11-21T05:53:24;6.00;99.90
12025;DHT22;6073;53.230;10.444;2023-11-21T05:55:49;6.00;99.90
12025;DHT22;6073;53.230;10.444;2023-11-21T05:58:15;6.00;99.90
12025;DHT22;6073;53.230;10.444;2023-11-21T06:00:40;6.00;99.90
12025;DHT22;6073;53.230;10.444;2023-11-21T06:03:07;6.00;99.90
12025;DHT22;6073;53.230;10.444;2023-11-21T06:05:33;6.00;99.90
12025;DHT22;6073;53.230;10.444;2023-11-21T06:07:58;5.90;99.90
12025;DHT22;6073;53.230;10.444;2023-11-21T06:10:25;5.90;99.90
12025;DHT22;6073;53.230;10.444;2023-11-21T06:12:50;6.00;99.90
12025;DHT22;6073;53.230;10.444;2023-11-21T06:15:16;5.90;99.90
12025;DHT22;6073;53.230;10.444;2023-11-21T06:17:44;5.90;99.90
12025;DHT22;6073;53.230;10.444;2023-11-21T06:20:14;5.90;99.90
12025;DHT22;6073;53.230;10.444;2023-11-21T06:22:42;5.90;99.90
12025;DHT22;6073;53.230;10.444;2023-11-21T06:25:09;5.80;99.90
12025;DHT22;6073;53.230;10.444;2023-11-21T06:27:39;5.80;99.90
12025;DHT22;6073;53.230;10.444;2023-11-21T06:30:07;5.80;99.90
12025;DHT22;6073;53.230;10.444;2023-11-21T06:32:35;5.90;99.90
12025;DHT22;6073;53.230;10.444;2023-11-21T06:35:01;5.80;99.90
12025;DHT22;6073;53.230;10.444;2023-11-21T06:37:28;5.90;99.90
12025;DHT22;6073;53.230;10.444;2023-11-21T06:39:56;5.80;99.90
12025;DHT22;6073;53.230;10.444;2023-11-21T06:42:22;5.90;99.90
12025;DHT22;6073;53.230;10.444;2023-11-21T06:44:49;5.90;99.90
12025;DHT22;6073;53.230;10.444;2023-11-21T06:47:19;5.80;99.90
12025;DHT22;6073;53.230;10.444;2023-11-21T06:49:50;5.80;99.90
12025;DHT22;6073;53.230;10.444;2023-11-21T06:52:16;5.80;99.90
12025;DHT22;6073;53.230;10.444;2023-11-21T06:54:41;5.90;99.90
12025;DHT22;6073;53.230;10.444;2023-11-21T06:57:07;5.80;99.90
12025;DHT22;6073;53.230;10.444;2023-11-21T06:59:33;5.80;99.90
12025;DHT22;6073;53.230;10.444;2023-11-21T07:01:58;5.80;99.90
12025;DHT22;6073;53.230;10.444;2023-11-21T07:04:24;5.80;99.90
12025;DHT22;6073;53.230;10.444;2023-11-21T07:06:53;5.80;99.90
12025;DHT22;6073;53.230;10.444;2023-11-21T07:09:18;5.90;99.90
12025;DHT22;6073;53.230;10.444;2023-11-21T07:11:47;5.80;99.90
12025;DHT22;6073;53.230;10.444;2023-11-21T07:14:14;5.80;99.90
12025;DHT22;6073;53.230;10.444;2023-11-21T07:16:39;5.80;99.90
12025;DHT22;6073;53.230;10.444;2023-11-21T07:19:05;5.80;99.90
12025;DHT22;6073;53.230;10.444;2023-11-21T07:21:34;5.80;99.90
12025;DHT22;6073;53.230;10.444;2023-11-21T07:24:00;5.90;99.90
12025;DHT22;6073;53.230;10.444;2023-11-21T07:26:29;5.90;99.90
12025;DHT22;6073;53.230;10.444;2023-11-21T07:28:55;5.90;99.90
12025;DHT22;6073;53.230;10.444;2023-11-21T07:31:21;6.00;99.90
12025;DHT22;6073;53.230;10.444;2023-11-21T07:33:47;6.00;99.90
12025;DHT22;6073;53.230;10.444;2023-11-21T07:36:13;6.00;99.90
12025;DHT22;6073;53.230;10.444;2023-11-21T07:38:39;6.00;99.90
12025;DHT22;6073;53.230;10.444;2023-11-21T07:41:05;6.10;99.90
12025;DHT22;6073;53.230;10.444;2023-11-21T07:43:34;6.10;99.90
12025;DHT22;6073;53.230;10.444;2023-11-21T07:46:04;6.10;99.90
12025;DHT22;6073;53.230;10.444;2023-11-21T07:48:30;6.10;99.90
12025;DHT22;6073;53.230;10.444;2023-11-21T07:50:57;6.10;99.90
12025;DHT22;6073;53.230;10.444;2023-11-21T07:53:26;6.10;99.90
12025;DHT22;6073;53.230;10.444;2023-11-21T07:55:54;6.10;99.90
12025;DHT22;6073;53.230;10.444;2023-11-21T07:58:20;6.10;99.90
12025;DHT22;6073;53.230;10.444;2023-11-21T08:00:45;6.10;99.90
12025;DHT22;6073;53.230;10.444;2023-11-21T08:03:13;6.10;99.90
12025;DHT22;6073;53.230;10.444;2023-11-21T08:05:38;6.10;99.90
12025;DHT22;6073;53.230;10.444;2023-11-21T08:08:04;6.10;99.90
12025;DHT22;6073;53.230;10.444;2023-11-21T08:10:30;6.10;99.90
12025;DHT22;6073;53.230;10.444;2023-11-21T08:12:55;6.10;99.90
12025;DHT22;6073;53.230;10.444;2023-11-21T08:15:21;6.10;99.90
12025;DHT22;6073;53.230;10.444;2023-11-21T08:17:47;6.10;99.90
12025;DHT22;6073;53.230;10.444;2023-11-21T08:20:13;6.10;99.90
12025;DHT22;6073;53.230;10.444;2023-11-21T08:22:42;6.10;99.90
12025;DHT22;6073;53.230;10.444;2023-11-21T08:25:08;6.10;99.90
12025;DHT22;6073;53.230;10.444;2023-11-21T08:27:34;6.20;99.90
12025;DHT22;6073;53.230;10.444;2023-11-21T08:30:00;6.20;99.90
12025;DHT22;6073;53.230;10.444;2023-11-21T08:32:26;6.20;99.90
12025;DHT22;6073;53.230;10.444;2023-11-21T08:34:51;6.20;99.90
12025;DHT22;6073;53.230;10.444;2023-11-21T08:37:17;6.20;99.90
12025;DHT22;6073;53.230;10.444;2023-11-21T08:39:47;6.30;99.90
12025;DHT22;6073;53.230;10.444;2023-11-21T08:42:13;6.30;99.90
12025;DHT22;6073;53.230;10.444;2023-11-21T08:44:40;6.40;99.90
12025;DHT22;6073;53.230;10.444;2023-11-21T08:47:06;6.40;99.90
12025;DHT22;6073;53.230;10.444;2023-11-21T08:49:31;6.40;99.90
12025;DHT22;6073;53.230;10.444;2023-11-21T08:51:58;6.40;99.90
12025;DHT22;6073;53.230;10.444;2023-11-21T08:54:25;6.40;99.90
12025;DHT22;6073;53.230;10.444;2023-11-21T08:56:54;6.40;99.90
12025;DHT22;6073;53.230;10.444;2023-11-21T08:59:20;6.40;99.90
12025;DHT22;6073;53.230;10.444;2023-11-21T09:01:46;6.50;99.90
12025;DHT22;6073;53.230;10.444;2023-11-21T09:04:12;6.60;99.90
12025;DHT22;6073;53.230;10.444;2023-11-21T09:06:39;6.60;99.90
12025;DHT22;6073;53.230;10.444;2023-11-21T09:09:05;6.70;99.90
12025;DHT22;6073;53.230;10.444;2023-11-21T09:11:31;6.70;99.90
12025;DHT22;6073;53.230;10.444;2023-11-21T09:13:59;6.70;99.90
12025;DHT22;6073;53.230;10.444;2023-11-21T09:16:25;6.70;99.90
12025;DHT22;6073;53.230;10.444;2023-11-21T09:18:50;6.90;99.90
12025;DHT22;6073;53.230;10.444;2023-11-21T09:21:16;6.90;99.90
12025;DHT22;6073;53.230;10.444;2023-11-21T09:23:46;6.90;99.90
12025;DHT22;6073;53.230;10.444;2023-11-21T09:26:12;6.90;99.90
12025;DHT22;6073;53.230;10.444;2023-11-21T09:28:37;7.00;99.90
12025;DHT22;6073;53.230;10.444;2023-11-21T09:31:04;7.00;99.90
12025;DHT22;6073;53.230;10.444;2023-11-21T09:33:30;7.10;99.90
12025;DHT22;6073;53.230;10.444;2023-11-21T09:35:56;7.10;99.90
12025;DHT22;6073;53.230;10.444;2023-11-21T09:38:23;7.10;99.90
12025;DHT22;6073;53.230;10.444;2023-11-21T09:40:48;7.00;99.90
12025;DHT22;6073;53.230;10.444;2023-11-21T09:43:18;7.00;99.90
12025;DHT22;6073;53.230;10.444;2023-11-21T09:45:48;7.00;99.90
12025;DHT22;6073;53.230;10.444;2023-11-21T09:48:16;7.10;99.90
12025;DHT22;6073;53.230;10.444;2023-11-21T09:50:43;7.10;99.90
12025;DHT22;6073;53.230;10.444;2023-11-21T09:53:18;7.20;99.90
12025;DHT22;6073;53.230;10.444;2023-11-21T09:55:47;7.20;99.90
12025;DHT22;6073;53.230;10.444;2023-11-21T09:58:14;7.10;99.90
12025;DHT22;6073;53.230;10.444;2023-11-21T10:00:44;7.10;99.90
12025;DHT22;6073;53.230;10.444;2023-11-21T10:03:10;7.20;99.90
12025;DHT22;6073;53.230;10.444;2023-11-21T10:05:36;7.20;99.90
12025;DHT22;6073;53.230;10.444;2023-11-21T10:08:04;7.20;99.90
12025;DHT22;6073;53.230;10.444;2023-11-21T10:10:32;7.30;99.90
12025;DHT22;6073;53.230;10.444;2023-11-21T10:13:02;7.30;99.90
12025;DHT22;6073;53.230;10.444;2023-11-21T10:15:29;7.30;99.90
12025;DHT22;6073;53.230;10.444;2023-11-21T10:17:56;7.30;99.90
12025;DHT22;6073;53.230;10.444;2023-11-21T10:20:23;7.20;99.90
12025;DHT22;6073;53.230;10.444;2023-11-21T10:22:50;7.20;99.90
12025;DHT22;6073;53.230;10.444;2023-11-21T10:25:16;7.20;99.90
12025;DHT22;6073;53.230;10.444;2023-11-21T10:27:43;7.20;99.90
12025;DHT22;6073;53.230;10.444;2023-11-21T10:30:11;7.20;99.90
12025;DHT22;6073;53.230;10.444;2023-11-21T10:32:42;7.20;99.90
12025;DHT22;6073;53.230;10.444;2023-11-21T10:35:09;7.20;99.90
12025;DHT22;6073;53.230;10.444;2023-11-21T10:37:38;7.20;99.90
12025;DHT22;6073;53.230;10.444;2023-11-21T10:40:11;7.20;99.90
12025;DHT22;6073;53.230;10.444;2023-11-21T10:42:41;7.20;99.90
12025;DHT22;6073;53.230;10.444;2023-11-21T10:45:07;7.20;99.90
12025;DHT22;6073;53.230;10.444;2023-11-21T10:47:40;7.30;99.90
12025;DHT22;6073;53.230;10.444;2023-11-21T10:50:07;7.40;99.90
12025;DHT22;6073;53.230;10.444;2023-11-21T10:52:36;7.50;99.90
12025;DHT22;6073;53.230;10.444;2023-11-21T10:55:16;7.50;99.90
12025;DHT22;6073;53.230;10.444;2023-11-21T10:57:42;7.60;99.90
12025;DHT22;6073;53.230;10.444;2023-11-21T11:00:08;7.60;99.90
12025;DHT22;6073;53.230;10.444;2023-11-21T11:02:38;7.70;99.90
12025;DHT22;6073;53.230;10.444;2023-11-21T11:05:05;7.80;99.90
12025;DHT22;6073;53.230;10.444;2023-11-21T11:07:32;7.70;99.90
12025;DHT22;6073;53.230;10.444;2023-11-21T11:09:59;7.70;99.90
12025;DHT22;6073;53.230;10.444;2023-11-21T11:12:25;7.50;99.90
12025;DHT22;6073;53.230;10.444;2023-11-21T11:14:51;7.50;99.90
12025;DHT22;6073;53.230;10.444;2023-11-21T11:17:19;7.50;99.90
12025;DHT22;6073;53.230;10.444;2023-11-21T11:19:46;7.50;99.90
12025;DHT22;6073;53.230;10.444;2023-11-21T11:22:28;7.50;99.90
12025;DHT22;6073;53.230;10.444;2023-11-21T11:25:21;7.50;99.90
12025;DHT22;6073;53.230;10.444;2023-11-21T11:28:02;7.40;99.90
12025;DHT22;6073;53.230;10.444;2023-11-21T11:30:57;7.40;99.90
12025;DHT22;6073;53.230;10.444;2023-11-21T11:33:39;7.30;99.90
12025;DHT22;6073;53.230;10.444;2023-11-21T11:36:31;7.40;99.90
12025;DHT22;6073;53.230;10.444;2023-11-21T11:38:59;7.40;99.90
12025;DHT22;6073;53.230;10.444;2023-11-21T11:41:30;7.40;99.90
12025;DHT22;6073;53.230;10.444;2023-11-21T11:43:58;7.40;99.90
12025;DHT22;6073;53.230;10.444;2023-11-21T11:46:53;7.40;99.90
12025;DHT22;6073;53.230;10.444;2023-11-21T11:49:27;7.30;99.90
12025;DHT22;6073;53.230;10.444;2023-11-21T11:54:56;7.20;99.90
12025;DHT22;6073;53.230;10.444;2023-11-21T11:57:24;7.30;99.90
12025;DHT22;6073;53.230;10.444;2023-11-21T12:02:40;7.10;99.90
12025;DHT22;6073;53.230;10.444;2023-11-21T12:05:10;7.00;99.90
12025;DHT22;6073;53.230;10.444;2023-11-21T12:07:45;7.10;99.90
12025;DHT22;6073;53.230;10.444;2023-11-21T12:10:17;7.10;99.90
12025;DHT22;6073;53.230;10.444;2023-11-21T12:12:48;7.00;99.90
12025;DHT22;6073;53.230;10.444;2023-11-21T12:15:14;7.00;99.90
12025;DHT22;6073;53.230;10.444;2023-11-21T12:17:42;7.00;99.90
12025;DHT22;6073;53.230;10.444;2023-11-21T12:20:09;7.00;99.90
12025;DHT22;6073;53.230;10.444;2023-11-21T12:22:50;7.00;99.90
12025;DHT22;6073;53.230;10.444;2023-11-21T12:25:24;6.90;99.90
12025;DHT22;6073;53.230;10.444;2023-11-21T12:27:52;6.80;99.90
12025;DHT22;6073;53.230;10.444;2023-11-21T12:30:22;6.80;99.90
12025;DHT22;6073;53.230;10.444;2023-11-21T12:32:53;6.90;99.90
12025;DHT22;6073;53.230;10.444;2023-11-21T12:35:21;6.80;99.90
12025;DHT22;6073;53.230;10.444;2023-11-21T12:37:47;6.80;99.90
12025;DHT22;6073;53.230;10.444;2023-11-21T12:40:15;6.80;99.90
12025;DHT22;6073;53.230;10.444;2023-11-21T12:42:48;6.90;99.90
12025;DHT22;6073;53.230;10.444;2023-11-21T12:45:24;6.90;99.90
12025;DHT22;6073;53.230;10.444;2023-11-21T12:47:56;6.90;99.90
12025;DHT22;6073;53.230;10.444;2023-11-21T12:50:26;7.00;99.90
12025;DHT22;6073;53.230;10.444;2023-11-21T12:53:08;7.10;99.90
12025;DHT22;6073;53.230;10.444;2023-11-21T12:55:36;7.00;99.90
12025;DHT22;6073;53.230;10.444;2023-11-21T12:58:07;7.00;99.90
12025;DHT22;6073;53.230;10.444;2023-11-21T13:00:38;7.00;99.90
12025;DHT22;6073;53.230;10.444;2023-11-21T13:03:07;7.00;99.90
12025;DHT22;6073;53.230;10.444;2023-11-21T13:05:35;6.90;99.90
12025;DHT22;6073;53.230;10.444;2023-11-21T13:08:04;6.80;99.90
12025;DHT22;6073;53.230;10.444;2023-11-21T13:10:34;6.70;99.90
12025;DHT22;6073;53.230;10.444;2023-11-21T13:13:02;6.70;99.90
12025;DHT22;6073;53.230;10.444;2023-11-21T13:15:31;6.70;99.90
12025;DHT22;6073;53.230;10.444;2023-11-21T13:17:58;6.70;99.90
12025;DHT22;6073;53.230;10.444;2023-11-21T13:20:27;6.60;99.90
12025;DHT22;6073;53.230;10.444;2023-11-21T13:22:55;6.60;99.90
12025;DHT22;6073;53.230;10.444;2023-11-21T13:25:25;6.50;99.90
12025;DHT22;6073;53.230;10.444;2023-11-21T13:27:56;6.50;99.90
12025;DHT22;6073;53.230;10.444;2023-11-21T13:30:22;6.50;99.90
12025;DHT22;6073;53.230;10.444;2023-11-21T13:32:52;6.40;99.90
12025;DHT22;6073;53.230;10.444;2023-11-21T13:35:18;6.40;99.90
12025;DHT22;6073;53.230;10.444;2023-11-21T13:37:52;6.40;99.90
12025;DHT22;6073;53.230;10.444;2023-11-21T13:40:22;6.40;99.90
12025;DHT22;6073;53.230;10.444;2023-11-21T13:42:51;6.40;99.90
12025;DHT22;6073;53.230;10.444;2023-11-21T13:45:21;6.40;99.90
12025;DHT22;6073;53.230;10.444;2023-11-21T13:47:49;6.50;99.90
12025;DHT22;6073;53.230;10.444;2023-11-21T13:50:17;6.50;99.90
12025;DHT22;6073;53.230;10.444;2023-11-21T13:52:48;6.50;99.90
12025;DHT22;6073;53.230;10.444;2023-11-21T13:55:14;6.50;99.90
12025;DHT22;6073;53.230;10.444;2023-11-21T13:57:42;6.60;99.90
12025;DHT22;6073;53.230;10.444;2023-11-21T14:00:15;6.60;99.90
12025;DHT22;6073;53.230;10.444;2023-11-21T14:03:01;6.70;99.90
12025;DHT22;6073;53.230;10.444;2023-11-21T14:05:31;6.70;99.90
12025;DHT22;6073;53.230;10.444;2023-11-21T14:07:59;6.70;99.90
12025;DHT22;6073;53.230;10.444;2023-11-21T14:10:31;6.60;99.90
12025;DHT22;6073;53.230;10.444;2023-11-21T14:13:08;6.60;99.90
12025;DHT22;6073;53.230;10.444;2023-11-21T14:15:36;6.50;99.90
12025;DHT22;6073;53.230;10.444;2023-11-21T14:18:07;6.50;99.90
12025;DHT22;6073;53.230;10.444;2023-11-21T14:20:36;6.40;99.90
12025;DHT22;6073;53.230;10.444;2023-11-21T14:23:03;6.40;99.90
12025;DHT22;6073;53.230;10.444;2023-11-21T14:25:31;6.40;99.90
12025;DHT22;6073;53.230;10.444;2023-11-21T14:27:57;6.30;99.90
12025;DHT22;6073;53.230;10.444;2023-11-21T14:30:23;6.30;99.90
12025;DHT22;6073;53.230;10.444;2023-11-21T14:32:49;6.30;99.90
12025;DHT22;6073;53.230;10.444;2023-11-21T14:35:15;6.20;99.90
12025;DHT22;6073;53.230;10.444;2023-11-21T14:37:42;6.30;99.90
12025;DHT22;6073;53.230;10.444;2023-11-21T14:40:08;6.20;99.90
12025;DHT22;6073;53.230;10.444;2023-11-21T14:42:34;6.20;99.90
12025;DHT22;6073;53.230;10.444;2023-11-21T14:45:03;6.20;99.90
12025;DHT22;6073;53.230;10.444;2023-11-21T14:47:32;6.20;99.90
12025;DHT22;6073;53.230;10.444;2023-11-21T14:50:00;6.20;99.90
12025;DHT22;6073;53.230;10.444;2023-11-21T14:52:31;6.10;99.90
12025;DHT22;6073;53.230;10.444;2023-11-21T14:55:04;6.10;99.90
12025;DHT22;6073;53.230;10.444;2023-11-21T14:57:48;6.20;99.90
12025;DHT22;6073;53.230;10.444;2023-11-21T15:00:18;6.20;99.90
12025;DHT22;6073;53.230;10.444;2023-11-21T15:03:16;6.10;99.90
12025;DHT22;6073;53.230;10.444;2023-11-21T15:05:58;6.10;99.90
12025;DHT22;6073;53.230;10.444;2023-11-21T15:08:25;6.00;99.90
12025;DHT22;6073;53.230;10.444;2023-11-21T15:10:57;6.00;99.90
12025;DHT22;6073;53.230;10.444;2023-11-21T15:13:23;6.00;99.90
12025;DHT22;6073;53.230;10.444;2023-11-21T15:15:51;6.00;99.90
12025;DHT22;6073;53.230;10.444;2023-11-21T15:18:19;6.00;99.90
12025;DHT22;6073;53.230;10.444;2023-11-21T15:20:45;5.90;99.90
12025;DHT22;6073;53.230;10.444;2023-11-21T15:23:11;5.90;99.90
12025;DHT22;6073;53.230;10.444;2023-11-21T15:25:38;5.90;99.90
12025;DHT22;6073;53.230;10.444;2023-11-21T15:28:04;5.90;99.90
12025;DHT22;6073;53.230;10.444;2023-11-21T15:30:30;5.90;99.90
12025;DHT22;6073;53.230;10.444;2023-11-21T15:32:58;5.90;99.90
12025;DHT22;6073;53.230;10.444;2023-11-21T15:35:23;5.90;99.90
12025;DHT22;6073;53.230;10.444;2023-11-21T15:37:49;5.90;99.90
12025;DHT22;6073;53.230;10.444;2023-11-21T15:40:14;5.90;99.90
12025;DHT22;6073;53.230;10.444;2023-11-21T15:42:42;5.90;99.90
12025;DHT22;6073;53.230;10.444;2023-11-21T15:45:09;5.90;99.90
12025;DHT22;6073;53.230;10.444;2023-11-21T15:47:34;5.90;99.90
12025;DHT22;6073;53.230;10.444;2023-11-21T15:50:04;5.90;99.90
12025;DHT22;6073;53.230;10.444;2023-11-21T15:52:33;5.90;99.90
12025;DHT22;6073;53.230;10.444;2023-11-21T15:54:59;5.90;99.90
12025;DHT22;6073;53.230;10.444;2023-11-21T15:57:25;5.90;99.90